Time;durP1;ratioP1;P1;durP2;ratioP2;P2;SDS_P1;SDS_P2;PMS_P1;PMS_P2;Temp;Humidity;BMP_temperature;BMP_pressure;BME280_temperature;BME280_humidity;BME280_pressure;Samples;Min_cycle;Max_cycle;Signal;HPM_P1;HPM_P2
2023/08/22 00:01:50;;;;;;;10.93;6.32;;;25.50;69.00;;;27.19;49.86;98005.69;5030003;28;20056;-60
2023/08/22 00:04:18;;;;;;;7.53;5.38;;;25.40;69.30;;;27.17;50.26;98001.56;5031235;28;20056;-60
2023/08/22 00:06:45;;;;;;;8.45;6.05;;;25.40;69.50;;;27.15;49.92;97990.06;5031614;28;20114;-60
2023/08/22 00:09:13;;;;;;;6.50;5.72;;;25.40;69.70;;;27.12;50.00;97996.84;5034865;28;20044;-60
2023/08/22 00:11:41;;;;;;;6.32;5.28;;;25.40;69.60;;;27.10;50.11;97996.28;5033768;28;20054;-59
2023/08/22 00:14:09;;;;;;;7.40;5.57;;;25.30;69.80;;;27.10;50.14;97999.03;5035142;28;20046;-59
2023/08/22 00:16:37;;;;;;;6.07;5.07;;;25.40;69.50;;;27.10;50.42;97996.28;5035235;28;20053;-59
2023/08/22 00:19:05;;;;;;;10.43;5.15;;;25.40;69.40;;;27.09;50.45;97991.94;5033302;28;20041;-60
2023/08/22 00:21:32;;;;;;;5.68;4.65;;;25.40;69.50;;;27.07;50.02;97994.91;5034909;28;20042;-60
2023/08/22 00:24:00;;;;;;;8.70;5.85;;;25.30;69.40;;;27.02;49.71;97986.66;5035270;28;20057;-60
2023/08/22 00:26:28;;;;;;;6.13;5.20;;;25.30;69.40;;;27.01;50.16;97982.31;5035116;28;20049;-60
2023/08/22 00:28:56;;;;;;;6.25;4.82;;;25.30;69.50;;;27.01;50.28;97979.56;5033661;28;20045;-59
2023/08/22 00:31:23;;;;;;;7.93;6.13;;;25.30;69.30;;;27.00;49.99;97977.09;5033392;28;20042;-60
2023/08/22 00:33:51;;;;;;;6.43;4.45;;;25.30;69.20;;;26.96;49.79;97974.06;5016762;28;20056;-60
2023/08/22 00:36:19;;;;;;;11.20;5.80;;;25.20;69.20;;;26.93;50.18;97980.06;5030912;28;20053;-60
2023/08/22 00:38:47;;;;;;;7.55;4.88;;;25.20;69.30;;;26.89;50.16;97977.00;5016638;28;20045;-60
2023/08/22 00:41:15;;;;;;;6.32;4.78;;;25.20;69.60;;;26.86;50.20;97976.69;5025365;28;20045;-60
2023/08/22 00:43:42;;;;;;;6.13;4.90;;;25.10;69.70;;;26.85;50.16;97973.16;5033776;28;20061;-60
2023/08/22 00:46:11;;;;;;;6.03;5.43;;;25.10;69.40;;;26.84;50.31;97976.94;5034754;28;20072;-60
2023/08/22 00:48:39;;;;;;;6.28;5.65;;;25.10;69.50;;;26.84;50.33;97970.66;5033728;28;20493;-60
2023/08/22 00:51:07;;;;;;;7.72;5.63;;;25.10;69.30;;;26.80;50.02;97967.63;5034211;28;20033;-60
2023/08/22 00:53:34;;;;;;;5.68;4.55;;;25.10;69.50;;;26.81;50.01;97962.97;5017485;28;20049;-60
2023/08/22 00:56:02;;;;;;;8.25;5.45;;;25.10;69.40;;;26.81;50.17;97963.81;5033022;28;20054;-60
2023/08/22 00:58:31;;;;;;;6.20;5.57;;;25.10;69.40;;;26.80;49.98;97955.88;5032841;28;20041;-60
2023/08/22 01:00:59;;;;;;;5.38;4.70;;;25.10;69.80;;;26.79;50.35;97959.69;5033220;28;20435;-60
2023/08/22 01:03:26;;;;;;;6.15;5.30;;;25.10;69.70;;;26.79;50.41;97959.69;5034368;28;20523;-60
2023/08/22 01:06:26;;;;;;;8.05;5.45;;;25.10;69.60;;;26.78;50.17;97958.06;5034615;28;20057;-60
2023/08/22 01:09:08;;;;;;;6.07;5.47;;;25.10;69.70;;;26.79;50.13;97960.50;5032881;28;20053;-60
2023/08/22 01:11:41;;;;;;;6.68;5.25;;;25.10;69.70;;;26.76;50.56;97954.75;5032777;28;20543;-60
2023/08/22 01:14:11;;;;;;;;;;;25.00;69.90;;;26.73;50.08;97958.81;5033424;28;20072;-60
2023/08/22 01:16:39;;;;;;;5.93;4.75;;;25.00;71.70;;;26.74;50.45;97962.38;5033229;28;19927;-59
2023/08/22 01:19:11;;;;;;;7.03;4.85;;;24.90;70.40;;;26.70;50.50;97959.34;5032193;28;20042;-60
2023/08/22 01:21:53;;;;;;;6.57;5.43;;;24.90;70.20;;;26.64;50.20;97953.00;5032607;28;20046;-60
2023/08/22 01:24:20;;;;;;;5.35;4.72;;;24.90;70.70;;;26.64;50.40;97958.47;5018084;28;20045;-60
2023/08/22 01:26:48;;;;;;;8.13;5.50;;;24.90;70.60;;;26.60;50.70;97954.59;5032263;28;20065;-60
2023/08/22 01:29:30;;;;;;;6.45;5.53;;;24.90;70.90;;;26.58;50.58;97955.91;5032026;28;20045;-60
2023/08/22 01:32:21;;;;;;;8.57;4.95;;;24.80;70.70;;;26.56;50.44;97955.31;5032520;28;20045;-60
2023/08/22 01:34:55;;;;;;;7.32;4.63;;;24.90;70.80;;;26.56;50.53;97958.91;5032651;28;20046;-60
2023/08/22 01:37:24;;;;;;;5.97;5.38;;;24.80;70.90;;;26.52;50.59;97955.84;5017009;28;20052;-60
2023/08/22 01:39:56;;;;;;;5.22;4.45;;;24.80;70.90;;;26.47;50.72;97953.06;5033091;28;20072;-59
2023/08/22 01:42:25;;;;;;;5.93;5.07;;;24.70;71.30;;;26.46;50.75;97956.03;5024948;28;20050;-59
2023/08/22 01:44:52;;;;;;;6.55;5.35;;;24.70;71.20;;;26.42;50.72;97954.91;5016037;28;20053;-59
2023/08/22 01:47:20;;;;;;;5.47;4.90;;;24.70;71.10;;;26.41;51.08;97956.81;5032402;28;20054;-59
2023/08/22 01:49:48;;;;;;;7.68;4.85;;;24.70;71.00;;;26.42;50.78;97957.63;5032107;28;20052;-56
2023/08/22 01:52:15;;;;;;;7.40;5.03;;;24.70;70.90;;;26.41;51.34;97947.81;5015974;28;20053;-56
2023/08/22 01:54:43;;;;;;;5.30;4.80;;;24.70;71.20;;;26.38;51.46;97951.06;5015795;28;20061;-56
2023/08/22 01:57:11;;;;;;;5.93;4.85;;;24.70;71.30;;;26.35;51.16;97955.13;5032362;28;20049;-56
2023/08/22 01:59:38;;;;;;;5.90;4.28;;;24.70;71.60;;;26.35;51.03;97951.56;5032416;28;20057;-56
2023/08/22 02:02:07;;;;;;;6.68;4.93;;;24.60;71.70;;;26.32;51.29;97944.72;5031769;28;20049;-56
2023/08/22 02:04:35;;;;;;;8.02;5.53;;;24.60;71.60;;;26.29;51.40;97950.69;5031544;28;20050;-56
2023/08/22 02:07:04;;;;;;;6.38;4.72;;;24.50;72.00;;;26.27;51.08;97948.22;5033124;28;20037;-56
2023/08/22 02:09:32;;;;;;;6.25;4.90;;;24.50;71.90;;;26.23;51.53;97947.09;5031851;28;20060;-55
2023/08/22 02:11:59;;;;;;;6.85;5.10;;;24.50;72.20;;;26.20;51.75;97942.13;5032259;28;20424;-56
2023/08/22 02:14:27;;;;;;;6.80;5.05;;;24.50;72.40;;;26.19;51.65;97943.22;5031496;28;20405;-56
2023/08/22 02:16:59;;;;;;;7.70;5.18;;;24.50;72.60;;;26.16;51.62;97946.44;5031474;28;20045;-56
2023/08/22 02:19:27;;;;;;;5.43;4.68;;;24.40;72.60;;;26.15;51.51;97946.69;5032988;28;20216;-57
2023/08/22 02:21:54;;;;;;;5.18;4.68;;;24.30;72.60;;;26.09;51.40;97943.91;5031732;28;20050;-55
2023/08/22 02:24:23;;;;;;;8.93;5.53;;;24.30;73.20;;;26.07;51.81;97945.22;5015743;28;20040;-56
2023/08/22 02:26:51;;;;;;;8.38;5.60;;;24.30;73.10;;;26.00;51.64;97942.72;5031320;28;20045;-56
2023/08/22 02:29:20;;;;;;;7.80;5.05;;;24.20;73.40;;;25.90;52.20;97946.09;5031032;28;20044;-56
2023/08/22 02:31:48;;;;;;;6.05;5.30;;;24.20;74.00;;;25.87;52.52;97943.06;5029874;28;20041;-56
2023/08/22 02:34:15;;;;;;;8.48;5.85;;;24.10;74.40;;;25.82;52.79;97946.53;5030928;28;20042;-56
2023/08/22 02:36:43;;;;;;;8.23;6.57;;;24.10;74.70;;;25.82;52.72;97945.69;5032425;28;20041;-55
2023/08/22 02:39:11;;;;;;;8.13;6.20;;;24.10;75.50;;;25.78;53.17;97947.28;5030749;28;20056;-57
2023/08/22 02:41:39;;;;;;;6.38;5.53;;;24.00;75.70;;;25.76;53.15;97944.81;5030915;28;20049;-57
2023/08/22 02:44:08;;;;;;;6.88;5.72;;;24.00;75.90;;;25.75;52.85;97948.63;5014512;28;20049;-56
2023/08/22 02:46:36;;;;;;;7.50;6.47;;;24.00;76.00;;;25.70;53.41;97952.09;5032422;28;20048;-57
2023/08/22 02:49:05;;;;;;;8.38;6.53;;;24.00;77.00;;;25.68;53.73;97948.78;5039536;28;20056;-56
2023/08/22 02:51:33;;;;;;;9.07;6.07;;;24.00;77.10;;;25.70;53.56;97941.19;5030512;28;20417;-56
2023/08/22 02:54:00;;;;;;;7.05;6.40;;;24.00;76.90;;;25.68;53.60;97950.69;5032554;28;20038;-57
2023/08/22 02:56:28;;;;;;;8.38;7.15;;;24.00;77.10;;;25.70;53.53;97954.81;5007269;28;20501;-56
2023/08/22 02:58:55;;;;;;;10.10;7.82;;;24.00;77.20;;;25.67;54.00;97946.34;5031919;28;20064;-57
2023/08/22 03:01:23;;;;;;;12.05;7.10;;;24.00;77.50;;;25.62;53.87;97941.63;5031099;28;20049;-56
2023/08/22 03:03:54;;;;;;;11.15;7.78;;;24.00;78.00;;;25.65;54.23;97929.38;5023012;28;20460;-56
2023/08/22 03:06:22;;;;;;;9.40;7.18;;;24.00;77.80;;;25.68;53.70;97926.97;5031107;28;20416;-57
2023/08/22 03:08:50;;;;;;;8.18;7.35;;;24.00;77.70;;;25.69;53.82;97925.91;5030608;28;20049;-57
2023/08/22 03:11:17;;;;;;;10.20;6.75;;;24.00;78.00;;;25.65;54.10;97922.06;5031573;28;20072;-56
2023/08/22 03:13:45;;;;;;;9.95;7.50;;;24.00;78.80;;;25.63;54.52;97921.47;5030450;28;20041;-57
2023/08/22 03:16:13;;;;;;;9.07;7.57;;;24.00;79.00;;;25.65;54.34;97923.94;5013755;28;20037;-56
2023/08/22 03:18:44;;;;;;;9.10;7.50;;;24.00;79.20;;;25.68;54.73;97926.97;5030365;28;20045;-55
2023/08/22 03:21:12;;;;;;;13.43;8.73;;;24.00;79.20;;;25.67;54.71;97930.81;5030524;28;20421;-55
2023/08/22 03:23:40;;;;;;;9.93;7.90;;;24.00;79.40;;;25.56;54.96;97933.63;5013888;28;20053;-56
2023/08/22 03:26:13;;;;;;;10.02;8.32;;;23.90;80.70;;;25.52;55.11;97931.41;5029936;28;20452;-56
2023/08/22 03:28:41;;;;;;;9.75;7.30;;;23.80;80.80;;;25.46;55.16;97932.41;5031392;28;20060;-58
2023/08/22 03:31:10;;;;;;;9.10;7.45;;;23.80;81.10;;;25.48;55.01;97932.16;5030019;28;20046;-58
2023/08/22 03:33:38;;;;;;;8.85;7.90;;;23.80;80.90;;;25.46;55.31;97932.41;5030257;28;20038;-58
2023/08/22 03:36:09;;;;;;;8.85;8.02;;;23.80;81.40;;;25.35;55.37;97931.44;5029887;28;20037;-61
2023/08/22 03:38:36;;;;;;;9.00;8.10;;;23.70;81.80;;;25.37;55.68;97942.09;5028452;28;20049;-59
2023/08/22 03:41:04;;;;;;;7.70;6.82;;;23.70;81.70;;;25.38;55.33;97934.72;5029688;28;20049;-59
2023/08/22 03:43:32;;;;;;;10.48;8.00;;;23.70;81.60;;;25.32;55.33;97934.66;5022909;28;20049;-59
2023/08/22 03:46:01;;;;;;;8.20;7.40;;;23.70;81.90;;;25.31;55.72;97932.19;5030324;28;20049;-58
2023/08/22 03:48:29;;;;;;;9.27;8.27;;;23.60;82.00;;;25.32;55.84;97928.41;5029786;28;20041;-59
2023/08/22 03:50:57;;;;;;;9.60;7.80;;;23.60;81.90;;;25.30;55.70;97925.91;5029592;28;20046;-59
2023/08/22 03:53:24;;;;;;;11.20;7.50;;;23.60;82.00;;;25.32;55.50;97925.69;5031427;28;20037;-59
2023/08/22 03:55:52;;;;;;;8.90;7.93;;;23.70;81.90;;;25.30;55.70;97928.66;5030291;28;20045;-58
2023/08/22 03:58:20;;;;;;;9.07;6.82;;;23.70;81.80;;;25.25;55.62;97936.72;5030369;28;20501;-57
2023/08/22 04:00:47;;;;;;;10.60;7.63;;;23.60;82.10;;;25.23;56.11;97938.06;5030315;28;20045;-59
2023/08/22 04:03:15;;;;;;;11.02;7.90;;;23.60;82.40;;;25.19;56.23;97937.69;5031234;28;20056;-59
2023/08/22 04:05:43;;;;;;;9.68;8.05;;;23.60;82.50;;;25.17;56.17;97933.59;5030145;28;20060;-59
2023/08/22 04:08:10;;;;;;;10.63;9.38;;;23.50;83.70;;;25.16;56.12;97930.00;5030123;28;20053;-59
2023/08/22 04:10:38;;;;;;;10.32;8.45;;;23.50;82.70;;;25.20;55.87;97941.25;5029568;28;20517;-59
2023/08/22 04:13:05;;;;;;;8.38;7.57;;;23.60;82.40;;;25.23;55.67;97938.06;5021529;28;20413;-58
2023/08/22 04:15:35;;;;;;;8.23;7.13;;;23.60;81.90;;;25.20;55.94;97939.34;5030924;28;20045;-59
2023/08/22 04:18:04;;;;;;;8.27;7.32;;;23.60;82.20;;;25.15;55.97;97945.53;5030685;28;20049;-59
2023/08/22 04:20:32;;;;;;;8.30;6.72;;;23.50;82.70;;;25.14;55.92;97940.34;5031147;28;20042;-59
2023/08/22 04:22:59;;;;;;;10.05;7.57;;;23.40;82.60;;;25.11;56.31;97943.56;5029555;28;20049;-59
2023/08/22 04:25:27;;;;;;;10.20;7.70;;;23.40;83.20;;;25.07;56.36;97953.31;5029445;28;20413;-57
2023/08/22 04:27:56;;;;;;;8.85;7.18;;;23.40;83.30;;;25.01;56.27;97954.28;5029491;28;20060;-57
2023/08/22 04:30:25;;;;;;;9.48;7.90;;;23.30;83.80;;;24.96;56.29;97960.47;5029537;28;20108;-58
2023/08/22 04:32:52;;;;;;;9.32;8.13;;;23.30;84.30;;;24.88;56.76;97958.16;5029100;28;20037;-57
2023/08/22 04:35:20;;;;;;;8.57;7.57;;;23.20;84.80;;;24.89;56.75;97957.91;5029185;28;20049;-57
2023/08/22 04:37:51;;;;;;;9.05;8.15;;;23.20;84.50;;;24.88;57.04;97960.88;5046434;28;20060;-57
2023/08/22 04:40:18;;;;;;;11.30;8.10;;;23.20;85.00;;;24.87;57.03;97965.50;5029007;28;20053;-57
2023/08/22 04:43:21;;;;;;;9.30;7.85;;;23.20;84.90;;;24.87;56.78;97970.09;5009091;28;20046;-59
2023/08/22 04:45:52;;;;;;;10.52;8.13;;;23.10;85.10;;;24.82;57.10;97961.88;5018907;28;20420;-59
2023/08/22 04:48:23;;;;;;;9.13;8.23;;;23.10;85.40;;;24.80;56.79;97959.38;5029404;28;20046;-59
2023/08/22 04:50:50;;;;;;;11.60;7.63;;;23.10;85.00;;;24.77;57.18;97965.31;5028992;28;20041;-58
2023/08/22 04:53:20;;;;;;;9.20;7.75;;;23.10;85.20;;;24.76;57.11;97966.41;5029891;28;20045;-58
2023/08/22 04:55:47;;;;;;;9.82;7.40;;;23.10;85.30;;;24.76;57.11;97964.50;5034638;28;20044;-59
2023/08/22 04:58:15;;;;;;;9.30;7.53;;;23.10;85.10;;;24.77;57.38;97966.13;5032924;28;20049;-59
2023/08/22 05:00:43;;;;;;;8.70;7.82;;;23.10;85.10;;;24.79;57.15;97970.50;5033157;28;20041;-59
2023/08/22 05:03:11;;;;;;;9.20;7.25;;;23.10;84.90;;;24.83;57.26;97966.22;5032802;28;20045;-59
2023/08/22 05:05:38;;;;;;;9.57;7.53;;;23.20;84.50;;;24.87;57.00;97965.50;5033116;28;20050;-59
2023/08/22 05:08:06;;;;;;;12.65;7.43;;;23.30;84.40;;;24.85;57.16;97967.63;5032589;28;20041;-59
2023/08/22 05:10:34;;;;;;;8.73;6.68;;;23.20;84.20;;;24.88;57.12;97966.34;5032292;28;20053;-59
2023/08/22 05:13:02;;;;;;;8.65;7.13;;;23.30;84.20;;;24.89;56.97;97971.53;5032979;28;20041;-59
2023/08/22 05:15:30;;;;;;;9.75;7.10;;;23.30;83.80;;;24.86;57.00;97968.47;5033155;28;20049;-59
2023/08/22 05:17:59;;;;;;;11.10;7.68;;;23.20;83.90;;;24.89;56.87;97965.25;5032765;28;20046;-57
2023/08/22 05:20:27;;;;;;;7.85;6.55;;;23.30;83.90;;;24.93;56.99;97972.69;5032611;28;20073;-56
2023/08/22 05:22:54;;;;;;;6.75;6.05;;;23.40;83.60;;;24.98;56.59;97962.97;5033008;28;20053;-57
2023/08/22 05:25:22;;;;;;;7.75;6.60;;;23.40;83.30;;;25.02;56.87;97967.66;5032595;28;20053;-57
2023/08/22 05:27:50;;;;;;;8.93;7.30;;;23.50;83.10;;;25.05;56.96;97972.63;5032161;28;20056;-56
2023/08/22 05:30:19;;;;;;;7.88;7.03;;;23.60;82.90;;;25.04;57.03;97970.94;5031729;28;20049;-57
2023/08/22 05:32:46;;;;;;;10.95;7.07;;;23.60;83.10;;;25.01;57.23;97968.75;5016068;28;20080;-56
2023/08/22 05:35:14;;;;;;;11.13;8.02;;;23.60;83.30;;;25.05;57.25;97972.63;5032694;28;20152;-59
2023/08/22 05:37:42;;;;;;;7.97;7.18;;;23.60;83.70;;;25.07;57.42;97966.94;5032969;28;20532;-56
2023/08/22 05:40:11;;;;;;;14.20;8.35;;;23.60;83.80;;;25.09;57.46;97968.31;5032769;28;20034;-57
2023/08/22 05:42:38;;;;;;;9.38;8.40;;;23.70;83.80;;;25.09;57.48;97970.22;5033448;28;20041;-57
2023/08/22 05:45:07;;;;;;;11.70;7.85;;;23.70;83.80;;;25.06;57.76;97976.16;5032766;28;20045;-56
2023/08/22 05:47:37;;;;;;;10.18;7.70;;;23.70;83.80;;;25.09;57.39;97962.88;5032037;28;20052;-57
2023/08/22 05:50:07;;;;;;;10.43;8.07;;;23.70;83.70;;;25.14;57.46;97970.28;5033097;28;20060;-57
2023/08/22 05:52:34;;;;;;;8.70;7.80;;;23.70;83.70;;;25.20;57.40;97968.47;5031917;28;20045;-56
2023/08/22 05:55:03;;;;;;;8.60;7.68;;;23.80;83.50;;;25.24;57.37;97967.78;5033363;28;20049;-57
2023/08/22 05:57:33;;;;;;;9.25;7.72;;;23.90;83.30;;;25.23;57.16;97971.56;5031496;28;20052;-57
2023/08/22 06:00:01;;;;;;;9.88;8.35;;;23.90;83.20;;;25.29;57.28;97976.03;5032065;28;20418;-57
2023/08/22 06:02:32;;;;;;;9.48;8.07;;;23.90;82.90;;;25.31;57.35;97973.06;5033124;28;20053;-56
2023/08/22 06:05:00;;;;;;;9.07;7.25;;;24.00;82.70;;;25.41;57.17;97975.13;5031737;28;20052;-56
2023/08/22 06:07:28;;;;;;;10.63;7.70;;;24.00;82.30;;;25.47;57.21;97972.19;5032263;28;20050;-56
2023/08/22 06:09:58;;;;;;;10.13;7.97;;;24.10;82.20;;;25.49;56.79;97975.53;5014759;28;20505;-55
2023/08/22 06:12:25;;;;;;;9.82;7.28;;;24.20;82.00;;;25.54;57.09;97977.50;5030926;28;20056;-56
2023/08/22 06:14:53;;;;;;;11.02;8.50;;;24.20;82.10;;;25.59;57.04;97984.91;5015452;28;20053;-58
2023/08/22 06:17:21;;;;;;;12.02;8.82;;;24.20;82.00;;;25.53;56.83;97978.56;5031633;28;20049;-53
2023/08/22 06:19:48;;;;;;;8.95;8.05;;;24.20;82.10;;;25.58;57.04;97980.56;5032838;28;20042;-53
2023/08/22 06:22:16;;;;;;;11.02;8.40;;;24.20;82.40;;;25.65;56.94;97981.19;5014809;28;20469;-56
2023/08/22 06:24:43;;;;;;;8.70;7.82;;;24.30;82.20;;;25.64;57.05;97976.81;5032854;28;20041;-55
2023/08/22 06:27:11;;;;;;;8.68;7.85;;;24.40;81.90;;;25.63;57.01;97980.59;5031317;28;20053;-55
2023/08/22 06:29:39;;;;;;;9.52;7.45;;;24.30;82.20;;;25.70;57.10;97986.72;5032385;28;20045;-55
2023/08/22 06:32:07;;;;;;;10.15;8.45;;;24.40;82.30;;;25.74;57.14;97987.84;5031584;28;20045;-55
2023/08/22 06:34:36;;;;;;;11.68;7.80;;;24.40;82.30;;;25.77;57.39;97983.81;5039276;28;20555;-56
2023/08/22 06:37:06;;;;;;;11.82;8.82;;;24.50;82.40;;;25.81;57.30;97982.25;5031457;28;20052;-55
2023/08/22 06:39:34;;;;;;;9.77;8.68;;;24.50;82.30;;;25.89;57.00;97984.53;5026699;28;20045;-55
2023/08/22 06:42:02;;;;;;;11.27;8.27;;;24.70;81.90;;;25.98;56.94;97984.94;5031430;28;20057;-57
2023/08/22 06:44:30;;;;;;;8.82;6.65;;;24.70;81.60;;;26.01;57.18;97988.00;5030932;28;20042;-55
2023/08/22 06:46:58;;;;;;;11.07;7.50;;;24.70;81.60;;;26.07;57.39;97989.69;5032494;28;20485;-58
2023/08/22 06:49:25;;;;;;;10.98;8.65;;;24.80;81.60;;;26.07;57.05;97981.50;5031230;28;20049;-55
2023/08/22 06:51:53;;;;;;;10.85;8.32;;;24.90;81.60;;;26.08;57.08;97990.53;5032004;28;20493;-55
2023/08/22 06:54:22;;;;;;;9.98;9.02;;;24.80;81.20;;;26.10;57.08;97994.66;5032074;28;20045;-57
2023/08/22 06:56:50;;;;;;;11.82;8.57;;;24.90;81.50;;;26.03;57.06;97996.75;5024297;28;20060;-57
2023/08/22 06:59:17;;;;;;;9.75;8.50;;;24.80;81.20;;;26.02;56.96;97997.03;5032116;28;20520;-56
2023/08/22 07:01:45;;;;;;;10.13;8.27;;;24.80;81.60;;;25.99;56.96;98002.97;5031771;28;20056;-56
2023/08/22 07:04:13;;;;;;;11.25;8.60;;;24.80;81.60;;;25.99;57.70;98000.25;5031294;28;20053;-57
2023/08/22 07:06:44;;;;;;;11.20;9.07;;;24.80;82.00;;;26.11;57.33;98006.38;5031797;28;20052;-57
2023/08/22 07:09:11;;;;;;;9.95;7.72;;;24.90;81.80;;;26.18;57.10;98004.31;5029982;28;20046;-57
2023/08/22 07:11:39;;;;;;;9.38;7.90;;;25.00;81.50;;;26.19;57.43;98005.97;5032139;28;20416;-53
2023/08/22 07:14:07;;;;;;;9.85;8.05;;;25.10;82.00;;;26.28;56.91;98007.16;5031867;28;20068;-56
2023/08/22 07:16:35;;;;;;;8.88;7.97;;;25.20;80.80;;;26.37;56.97;98007.53;5030230;28;20338;-57
2023/08/22 07:19:05;;;;;;;8.75;7.68;;;25.30;80.30;;;26.34;56.92;98010.78;5032252;28;20053;-56
2023/08/22 07:21:33;;;;;;;8.85;7.13;;;25.30;80.40;;;26.38;57.09;98008.38;5031780;28;20064;-56
2023/08/22 07:24:03;;;;;;;7.40;6.65;;;25.30;80.00;;;26.43;56.71;98006.53;5030872;28;20060;-57
2023/08/22 07:26:30;;;;;;;7.78;7.07;;;25.40;80.00;;;26.54;56.99;98010.22;5031933;28;20401;-57
2023/08/22 07:28:58;;;;;;;8.75;7.88;;;25.40;79.80;;;26.62;56.57;98012.50;5031355;28;20041;-55
2023/08/22 07:31:26;;;;;;;8.20;7.20;;;25.50;79.00;;;26.69;56.28;98015.03;5031633;28;20046;-57
2023/08/22 07:33:54;;;;;;;9.70;8.75;;;25.60;79.10;;;26.66;56.52;98007.38;5031651;28;20049;-57
2023/08/22 07:36:22;;;;;;;9.15;6.80;;;25.60;78.80;;;26.62;56.46;98006.19;5031536;28;20052;-57
2023/08/22 07:38:50;;;;;;;7.93;7.10;;;25.50;78.90;;;26.68;56.08;98008.75;5030597;28;20421;-56
2023/08/22 07:41:17;;;;;;;8.85;7.65;;;25.60;78.80;;;26.71;55.86;98015.59;5030332;28;20053;-57
2023/08/22 07:43:45;;;;;;;7.70;6.90;;;25.60;78.20;;;26.76;55.87;98020.28;5031503;28;20494;-57
2023/08/22 07:46:13;;;;;;;7.75;6.35;;;25.70;78.10;;;26.78;56.05;98021.69;5031233;28;20056;-56
2023/08/22 07:48:40;;;;;;;8.75;7.35;;;25.70;77.60;;;26.83;55.69;98029.09;5030301;28;20048;-57
2023/08/22 07:51:08;;;;;;;7.68;6.53;;;25.80;77.30;;;26.78;56.14;98032.59;5030897;28;20049;-56
2023/08/22 07:53:35;;;;;;;8.52;7.60;;;25.80;77.40;;;26.89;56.14;98022.63;5031263;28;20044;-56
2023/08/22 07:56:03;;;;;;;7.53;6.80;;;25.80;77.30;;;26.82;55.96;98025.53;5031405;28;20041;-57
2023/08/22 07:58:32;;;;;;;10.43;7.20;;;25.80;77.00;;;26.79;55.39;98026.03;5031160;28;20072;-57
2023/08/22 08:01:04;;;;;;;7.75;6.45;;;25.80;75.70;;;26.85;55.14;98021.47;5031468;28;20061;-56
2023/08/22 08:03:32;;;;;;;6.95;6.22;;;25.80;76.00;;;27.00;54.71;98038.00;5031276;28;20052;-55
2023/08/22 08:06:00;;;;;;;7.90;6.00;;;26.00;76.00;;;26.97;54.68;98026.78;5031142;28;20045;-57
2023/08/22 08:08:27;;;;;;;6.65;5.80;;;26.10;74.50;;;27.06;53.82;98030.69;5031335;28;20056;-57
2023/08/22 08:10:55;;;;;;;7.13;5.75;;;26.10;73.70;;;27.04;53.70;98028.22;5030894;28;20042;-57
2023/08/22 08:13:23;;;;;;;8.73;6.65;;;26.10;72.80;;;27.11;53.25;98033.47;5030143;28;20041;-57
2023/08/22 08:15:51;;;;;;;8.88;5.65;;;26.10;73.00;;;27.09;53.20;98030.19;5031303;28;20042;-57
2023/08/22 08:18:32;;;;;;;6.05;5.38;;;26.20;71.60;;;27.06;53.04;98022.50;5030238;28;20041;-56
2023/08/22 08:20:59;;;;;;;8.57;6.38;;;26.20;71.90;;;27.16;53.12;98035.44;5030694;28;20033;-57
2023/08/22 08:23:27;;;;;;;7.85;6.03;;;26.20;72.20;;;27.24;53.12;98029.50;5029795;28;20056;-58
2023/08/22 08:25:55;;;;;;;15.75;6.28;;;26.20;72.70;;;27.27;52.74;98035.28;5031279;28;20480;-56
2023/08/22 08:28:23;;;;;;;7.68;6.88;;;26.30;71.60;;;27.38;52.85;98033.47;5031523;28;20057;-57
2023/08/22 08:30:51;;;;;;;7.63;5.75;;;26.40;70.70;;;27.42;52.39;98036.50;5033795;28;20049;-56
2023/08/22 08:33:19;;;;;;;11.57;6.60;;;26.40;70.90;;;27.42;51.99;98031.03;5035047;28;20075;-57
2023/08/22 08:35:46;;;;;;;7.35;5.53;;;26.40;70.50;;;27.44;52.41;98034.34;5035041;28;20041;-57
2023/08/22 08:38:14;;;;;;;6.07;5.47;;;26.50;70.10;;;27.50;51.63;98034.09;5035294;28;20041;-57
2023/08/22 08:40:44;;;;;;;6.30;5.40;;;26.60;67.50;;;27.49;51.34;98032.47;5033844;28;20052;-57
2023/08/22 08:43:11;;;;;;;9.82;6.53;;;26.60;67.20;;;27.54;51.12;98022.66;5034665;28;20045;-57
2023/08/22 08:45:40;;;;;;;8.65;5.57;;;26.70;68.00;;;27.64;51.27;98029.00;5034720;28;20072;-57
2023/08/22 08:48:08;;;;;;;10.43;6.00;;;26.70;68.20;;;27.69;51.21;98036.44;5033676;28;20045;-56
2023/08/22 08:50:38;;;;;;;6.47;5.38;;;26.80;68.60;;;27.80;51.43;98024.50;5034484;28;20041;-56
2023/08/22 08:53:06;;;;;;;87.40;81.95;;;26.90;68.10;;;27.83;50.84;98026.69;5034219;28;20049;-56
2023/08/22 08:55:35;;;;;;;6.53;5.63;;;27.00;67.30;;;27.87;50.48;98025.06;5034747;28;20482;-57
2023/08/22 08:58:03;;;;;;;5.80;4.93;;;27.00;67.10;;;27.92;50.21;98024.31;5034696;28;20037;-56
2023/08/22 09:00:32;;;;;;;7.93;5.20;;;27.10;66.20;;;28.00;49.75;98023.00;5034398;28;20045;-57
2023/08/22 09:03:00;;;;;;;7.75;5.20;;;27.10;66.30;;;28.05;49.80;98023.00;5024673;28;20046;-57
2023/08/22 09:05:29;;;;;;;6.53;5.40;;;27.10;66.30;;;28.11;49.97;98021.13;5034615;28;20048;-57
2023/08/22 09:08:20;;;;;;;8.45;5.85;;;27.10;66.80;;;28.14;49.74;98023.34;5032977;28;20045;-57
2023/08/22 09:10:50;;;;;;;6.20;5.20;;;27.20;65.70;;;28.17;49.86;98017.31;5033114;28;20072;-57
2023/08/22 09:13:38;;;;;;;7.18;5.63;;;27.20;66.80;;;28.21;50.13;98018.47;5032849;28;20045;-57
2023/08/22 09:16:25;;;;;;;8.07;6.03;;;27.30;65.80;;;28.26;49.51;98022.00;5028071;28;20037;-57
2023/08/22 09:18:59;;;;;;;7.13;6.32;;;27.30;66.10;;;28.32;49.38;98025.59;5034161;28;20501;-57
2023/08/22 09:21:28;;;;;;;6.40;5.43;;;27.30;66.00;;;28.27;50.04;98020.13;5034018;28;20041;-57
2023/08/22 09:24:09;;;;;;;8.85;6.20;;;27.30;66.30;;;28.32;49.83;98019.31;5033682;28;20516;-57
2023/08/22 09:26:37;;;;;;;6.22;5.35;;;27.40;65.60;;;28.41;49.30;98014.97;5034383;28;20417;-57
2023/08/22 09:29:06;;;;;;;8.18;5.28;;;27.40;65.90;;;28.41;49.13;98020.44;5026118;28;20091;-57
2023/08/22 09:31:35;;;;;;;6.28;5.55;;;27.50;65.00;;;28.40;49.35;98016.88;5032599;28;20053;-56
2023/08/22 09:34:08;;;;;;;6.80;6.20;;;27.50;64.60;;;28.42;48.78;98006.50;5033885;28;20033;-57
2023/08/22 09:36:45;;;;;;;7.07;5.50;;;27.50;64.20;;;28.48;48.78;98015.56;5034315;28;20052;-57
2023/08/22 09:39:18;;;;;;;7.85;5.72;;;27.60;63.80;;;28.45;48.87;98011.41;5023154;28;20045;-57
2023/08/22 09:41:49;;;;;;;;;;;27.60;64.20;;;28.39;47.73;98003.47;5033261;28;20041;-57
2023/08/22 09:44:19;;;;;;;7.15;5.53;;;27.60;62.40;;;28.45;48.11;98007.88;5033806;28;20304;-56
2023/08/22 09:46:51;;;;;;;6.20;5.63;;;27.60;62.70;;;28.55;48.21;98010.66;5032084;28;20045;-56
2023/08/22 09:49:19;;;;;;;6.10;5.07;;;27.60;63.00;;;28.60;48.17;98002.47;5033163;28;20042;-58
2023/08/22 09:51:50;;;;;;;6.72;5.40;;;27.70;62.60;;;28.56;47.48;98009.56;5033250;28;20539;-58
2023/08/22 09:54:18;;;;;;;8.30;5.97;;;27.70;61.10;;;28.59;47.91;98006.28;5033481;28;20108;-57
2023/08/22 09:56:46;;;;;;;6.13;5.60;;;27.70;62.50;;;28.66;47.63;98019.75;5033523;28;20417;-58
2023/08/22 09:59:16;;;;;;;8.20;5.82;;;27.80;61.40;;;28.72;47.48;98009.63;5033044;28;20033;-58
2023/08/22 10:01:44;;;;;;;6.55;5.90;;;27.80;61.80;;;28.79;47.66;98007.44;5032082;28;20520;-58
2023/08/22 10:04:13;;;;;;;6.32;5.40;;;27.80;62.30;;;28.86;47.79;98002.50;5032192;28;20536;-55
2023/08/22 10:06:41;;;;;;;6.53;5.80;;;27.90;62.60;;;28.90;47.54;98000.06;5033659;28;20049;-57
2023/08/22 10:09:15;;;;;;;8.63;5.57;;;28.00;62.50;;;28.97;47.45;98001.44;5032840;28;20046;-57
2023/08/22 10:12:14;;;;;;;7.47;6.03;;;28.00;62.40;;;29.00;47.42;97991.84;5032816;28;20488;-57
2023/08/22 10:14:49;;;;;;;9.75;6.25;;;28.00;61.90;;;29.06;46.84;98004.44;5031626;28;20057;-58
2023/08/22 10:17:16;;;;;;;6.68;5.90;;;28.00;61.40;;;29.00;46.79;98003.66;5032285;28;20053;-58
2023/08/22 10:19:44;;;;;;;6.68;6.07;;;28.10;61.30;;;29.05;46.42;98002.81;5031412;28;20049;-58
2023/08/22 10:22:14;;;;;;;7.28;5.97;;;28.20;60.60;;;29.03;46.41;97997.59;5032798;28;20052;-57
2023/08/22 10:24:46;;;;;;;7.00;5.65;;;28.20;60.30;;;29.05;45.47;98000.91;5033069;28;20060;-57
2023/08/22 10:27:16;;;;;;;6.78;6.10;;;28.30;58.00;;;29.06;45.95;97997.06;5025124;28;20046;-57